sensor_id;sensor_type;location;lat;lon;timestamp;P1;durP1;ratioP1;P2;durP2;ratioP2
8978;SDS011;4524;51.364;5.448;2023-03-14T00:02:26;5.30;;;1.70;;
8978;SDS011;4524;51.364;5.448;2023-03-14T00:04:54;5.57;;;1.50;;
8978;SDS011;4524;51.364;5.448;2023-03-14T00:07:23;5.17;;;1.60;;
8978;SDS011;4524;51.364;5.448;2023-03-14T00:09:51;6.60;;;1.70;;
8978;SDS011;4524;51.364;5.448;2023-03-14T00:12:19;3.83;;;1.57;;
8978;SDS011;4524;51.364;5.448;2023-03-14T00:14:47;7.97;;;1.83;;
8978;SDS011;4524;51.364;5.448;2023-03-14T00:17:16;6.60;;;1.70;;
8978;SDS011;4524;51.364;5.448;2023-03-14T00:19:44;6.57;;;1.70;;
8978;SDS011;4524;51.364;5.448;2023-03-14T00:22:12;3.67;;;1.40;;
8978;SDS011;4524;51.364;5.448;2023-03-14T00:24:40;4.73;;;1.47;;
8978;SDS011;4524;51.364;5.448;2023-03-14T00:27:08;5.70;;;1.70;;
8978;SDS011;4524;51.364;5.448;2023-03-14T00:29:37;7.80;;;1.70;;
8978;SDS011;4524;51.364;5.448;2023-03-14T00:32:05;6.43;;;1.87;;
8978;SDS011;4524;51.364;5.448;2023-03-14T00:34:35;3.87;;;1.63;;
8978;SDS011;4524;51.364;5.448;2023-03-14T00:37:03;6.77;;;1.80;;
8978;SDS011;4524;51.364;5.448;2023-03-14T00:39:30;4.10;;;1.63;;
8978;SDS011;4524;51.364;5.448;2023-03-14T00:41:59;8.73;;;1.63;;
8978;SDS011;4524;51.364;5.448;2023-03-14T00:44:28;4.17;;;1.47;;
8978;SDS011;4524;51.364;5.448;2023-03-14T00:46:56;4.07;;;1.90;;
8978;SDS011;4524;51.364;5.448;2023-03-14T00:49:24;5.90;;;1.70;;
8978;SDS011;4524;51.364;5.448;2023-03-14T00:51:53;4.87;;;1.47;;
8978;SDS011;4524;51.364;5.448;2023-03-14T00:54:21;4.37;;;1.80;;
8978;SDS011;4524;51.364;5.448;2023-03-14T00:56:50;4.50;;;1.50;;
8978;SDS011;4524;51.364;5.448;2023-03-14T00:59:18;5.47;;;1.53;;
8978;SDS011;4524;51.364;5.448;2023-03-14T01:01:46;2.80;;;1.50;;
8978;SDS011;4524;51.364;5.448;2023-03-14T01:04:14;3.87;;;1.60;;
8978;SDS011;4524;51.364;5.448;2023-03-14T01:06:42;2.83;;;1.43;;
8978;SDS011;4524;51.364;5.448;2023-03-14T01:09:11;5.50;;;1.60;;
8978;SDS011;4524;51.364;5.448;2023-03-14T01:11:40;4.00;;;1.60;;
8978;SDS011;4524;51.364;5.448;2023-03-14T01:14:08;5.90;;;1.53;;
8978;SDS011;4524;51.364;5.448;2023-03-14T01:16:37;3.23;;;1.40;;
8978;SDS011;4524;51.364;5.448;2023-03-14T01:19:05;4.30;;;1.47;;
8978;SDS011;4524;51.364;5.448;2023-03-14T01:21:34;4.23;;;1.60;;
8978;SDS011;4524;51.364;5.448;2023-03-14T01:24:03;4.10;;;1.70;;
8978;SDS011;4524;51.364;5.448;2023-03-14T01:26:34;5.87;;;1.40;;
8978;SDS011;4524;51.364;5.448;2023-03-14T01:29:04;10.47;;;1.90;;
8978;SDS011;4524;51.364;5.448;2023-03-14T01:31:34;3.97;;;1.67;;
8978;SDS011;4524;51.364;5.448;2023-03-14T01:34:03;5.57;;;2.03;;
8978;SDS011;4524;51.364;5.448;2023-03-14T01:36:31;5.87;;;1.50;;
8978;SDS011;4524;51.364;5.448;2023-03-14T01:39:00;6.17;;;1.67;;
8978;SDS011;4524;51.364;5.448;2023-03-14T01:41:29;4.03;;;1.30;;
8978;SDS011;4524;51.364;5.448;2023-03-14T01:43:59;6.10;;;1.83;;
8978;SDS011;4524;51.364;5.448;2023-03-14T01:46:30;4.50;;;1.43;;
8978;SDS011;4524;51.364;5.448;2023-03-14T01:49:04;5.37;;;1.43;;
8978;SDS011;4524;51.364;5.448;2023-03-14T01:51:44;5.27;;;1.30;;
8978;SDS011;4524;51.364;5.448;2023-03-14T01:54:16;7.97;;;1.50;;
8978;SDS011;4524;51.364;5.448;2023-03-14T01:56:48;6.73;;;1.60;;
8978;SDS011;4524;51.364;5.448;2023-03-14T01:59:21;7.07;;;1.80;;
8978;SDS011;4524;51.364;5.448;2023-03-14T02:01:49;4.30;;;1.73;;
8978;SDS011;4524;51.364;5.448;2023-03-14T02:04:19;5.33;;;1.67;;
8978;SDS011;4524;51.364;5.448;2023-03-14T02:06:52;4.40;;;1.87;;
8978;SDS011;4524;51.364;5.448;2023-03-14T02:09:28;5.23;;;1.97;;
8978;SDS011;4524;51.364;5.448;2023-03-14T02:11:58;5.33;;;1.67;;
8978;SDS011;4524;51.364;5.448;2023-03-14T02:14:50;8.67;;;2.00;;
8978;SDS011;4524;51.364;5.448;2023-03-14T02:17:24;6.23;;;1.80;;
8978;SDS011;4524;51.364;5.448;2023-03-14T02:20:24;5.73;;;2.03;;
8978;SDS011;4524;51.364;5.448;2023-03-14T02:22:58;7.17;;;1.80;;
8978;SDS011;4524;51.364;5.448;2023-03-14T02:25:31;7.20;;;1.90;;
8978;SDS011;4524;51.364;5.448;2023-03-14T02:28:08;4.73;;;1.70;;
8978;SDS011;4524;51.364;5.448;2023-03-14T02:30:37;7.00;;;2.00;;
8978;SDS011;4524;51.364;5.448;2023-03-14T02:33:06;4.30;;;1.73;;
8978;SDS011;4524;51.364;5.448;2023-03-14T02:35:36;6.73;;;2.13;;
8978;SDS011;4524;51.364;5.448;2023-03-14T02:38:09;5.07;;;2.17;;
8978;SDS011;4524;51.364;5.448;2023-03-14T02:40:44;7.33;;;2.03;;
8978;SDS011;4524;51.364;5.448;2023-03-14T02:43:15;4.03;;;1.70;;
8978;SDS011;4524;51.364;5.448;2023-03-14T02:45:49;5.07;;;1.83;;
8978;SDS011;4524;51.364;5.448;2023-03-14T02:48:21;9.37;;;2.10;;
8978;SDS011;4524;51.364;5.448;2023-03-14T02:50:52;6.93;;;2.03;;
8978;SDS011;4524;51.364;5.448;2023-03-14T02:53:24;8.07;;;1.87;;
8978;SDS011;4524;51.364;5.448;2023-03-14T02:55:55;5.53;;;1.80;;
8978;SDS011;4524;51.364;5.448;2023-03-14T02:58:27;5.03;;;1.80;;
8978;SDS011;4524;51.364;5.448;2023-03-14T03:01:04;5.97;;;2.23;;
8978;SDS011;4524;51.364;5.448;2023-03-14T03:03:32;8.87;;;2.33;;
8978;SDS011;4524;51.364;5.448;2023-03-14T03:06:00;6.60;;;2.13;;
8978;SDS011;4524;51.364;5.448;2023-03-14T03:08:29;6.67;;;1.97;;
8978;SDS011;4524;51.364;5.448;2023-03-14T03:10:59;6.77;;;2.00;;
8978;SDS011;4524;51.364;5.448;2023-03-14T03:13:30;6.83;;;1.80;;
8978;SDS011;4524;51.364;5.448;2023-03-14T03:16:00;8.53;;;2.10;;
8978;SDS011;4524;51.364;5.448;2023-03-14T03:18:28;7.53;;;2.37;;
8978;SDS011;4524;51.364;5.448;2023-03-14T03:20:59;6.67;;;1.97;;
8978;SDS011;4524;51.364;5.448;2023-03-14T03:23:27;7.57;;;2.10;;
8978;SDS011;4524;51.364;5.448;2023-03-14T03:25:56;7.80;;;2.27;;
8978;SDS011;4524;51.364;5.448;2023-03-14T03:28:25;6.10;;;1.77;;
8978;SDS011;4524;51.364;5.448;2023-03-14T03:30:55;8.43;;;2.20;;
8978;SDS011;4524;51.364;5.448;2023-03-14T03:33:23;8.10;;;2.13;;
8978;SDS011;4524;51.364;5.448;2023-03-14T03:35:51;6.27;;;1.80;;
8978;SDS011;4524;51.364;5.448;2023-03-14T03:38:26;7.37;;;1.77;;
8978;SDS011;4524;51.364;5.448;2023-03-14T03:40:55;6.97;;;2.00;;
8978;SDS011;4524;51.364;5.448;2023-03-14T03:43:25;5.67;;;1.87;;
8978;SDS011;4524;51.364;5.448;2023-03-14T03:45:55;5.57;;;1.40;;
8978;SDS011;4524;51.364;5.448;2023-03-14T03:48:23;7.30;;;1.50;;
8978;SDS011;4524;51.364;5.448;2023-03-14T03:50:51;5.10;;;1.50;;
8978;SDS011;4524;51.364;5.448;2023-03-14T03:53:21;3.80;;;1.30;;
8978;SDS011;4524;51.364;5.448;2023-03-14T03:56:01;6.47;;;1.90;;
8978;SDS011;4524;51.364;5.448;2023-03-14T03:58:29;5.80;;;1.70;;
8978;SDS011;4524;51.364;5.448;2023-03-14T04:00:59;6.50;;;1.63;;
8978;SDS011;4524;51.364;5.448;2023-03-14T04:03:27;5.60;;;1.70;;
8978;SDS011;4524;51.364;5.448;2023-03-14T04:05:59;2.73;;;1.37;;
8978;SDS011;4524;51.364;5.448;2023-03-14T04:08:27;5.70;;;1.40;;
8978;SDS011;4524;51.364;5.448;2023-03-14T04:10:56;3.17;;;1.10;;
8978;SDS011;4524;51.364;5.448;2023-03-14T04:13:45;3.63;;;1.60;;
8978;SDS011;4524;51.364;5.448;2023-03-14T04:16:15;2.73;;;0.90;;
8978;SDS011;4524;51.364;5.448;2023-03-14T04:18:45;4.03;;;1.10;;
8978;SDS011;4524;51.364;5.448;2023-03-14T04:21:14;2.40;;;1.10;;
8978;SDS011;4524;51.364;5.448;2023-03-14T04:23:46;2.73;;;1.03;;
8978;SDS011;4524;51.364;5.448;2023-03-14T04:26:16;3.20;;;1.30;;
8978;SDS011;4524;51.364;5.448;2023-03-14T04:28:44;5.30;;;1.50;;
8978;SDS011;4524;51.364;5.448;2023-03-14T04:31:13;3.30;;;1.50;;
8978;SDS011;4524;51.364;5.448;2023-03-14T04:33:45;3.77;;;1.70;;
8978;SDS011;4524;51.364;5.448;2023-03-14T04:36:17;4.77;;;1.50;;
8978;SDS011;4524;51.364;5.448;2023-03-14T04:38:45;4.93;;;1.47;;
8978;SDS011;4524;51.364;5.448;2023-03-14T04:41:16;3.27;;;1.70;;
8978;SDS011;4524;51.364;5.448;2023-03-14T04:43:44;3.87;;;1.80;;
8978;SDS011;4524;51.364;5.448;2023-03-14T04:46:14;5.20;;;1.50;;
8978;SDS011;4524;51.364;5.448;2023-03-14T04:48:43;4.10;;;2.17;;
8978;SDS011;4524;51.364;5.448;2023-03-14T04:51:11;4.10;;;1.57;;
8978;SDS011;4524;51.364;5.448;2023-03-14T04:53:39;4.27;;;1.80;;
8978;SDS011;4524;51.364;5.448;2023-03-14T04:56:10;5.23;;;2.40;;
8978;SDS011;4524;51.364;5.448;2023-03-14T04:58:41;4.57;;;1.77;;
8978;SDS011;4524;51.364;5.448;2023-03-14T05:01:12;3.30;;;1.70;;
8978;SDS011;4524;51.364;5.448;2023-03-14T05:04:00;4.30;;;1.97;;
8978;SDS011;4524;51.364;5.448;2023-03-14T05:06:40;3.07;;;1.87;;
8978;SDS011;4524;51.364;5.448;2023-03-14T05:09:24;4.43;;;2.20;;
8978;SDS011;4524;51.364;5.448;2023-03-14T05:12:16;4.00;;;2.40;;
8978;SDS011;4524;51.364;5.448;2023-03-14T05:14:58;4.50;;;2.40;;
8978;SDS011;4524;51.364;5.448;2023-03-14T05:17:45;6.37;;;3.03;;
8978;SDS011;4524;51.364;5.448;2023-03-14T05:20:35;5.60;;;3.20;;
8978;SDS011;4524;51.364;5.448;2023-03-14T05:23:21;4.87;;;2.70;;
8978;SDS011;4524;51.364;5.448;2023-03-14T05:26:00;8.20;;;3.50;;
8978;SDS011;4524;51.364;5.448;2023-03-14T05:28:36;5.53;;;3.40;;
8978;SDS011;4524;51.364;5.448;2023-03-14T05:31:19;4.90;;;3.60;;
8978;SDS011;4524;51.364;5.448;2023-03-14T05:34:05;4.53;;;3.43;;
8978;SDS011;4524;51.364;5.448;2023-03-14T05:36:41;6.53;;;3.37;;
8978;SDS011;4524;51.364;5.448;2023-03-14T05:39:20;4.10;;;3.53;;
8978;SDS011;4524;51.364;5.448;2023-03-14T05:42:07;4.00;;;3.10;;
8978;SDS011;4524;51.364;5.448;2023-03-14T05:45:04;7.97;;;3.47;;
8978;SDS011;4524;51.364;5.448;2023-03-14T05:47:48;6.67;;;3.17;;
8978;SDS011;4524;51.364;5.448;2023-03-14T05:50:42;5.83;;;3.10;;
8978;SDS011;4524;51.364;5.448;2023-03-14T05:53:27;5.07;;;2.90;;
8978;SDS011;4524;51.364;5.448;2023-03-14T05:56:15;4.70;;;2.90;;
8978;SDS011;4524;51.364;5.448;2023-03-14T05:58:55;5.07;;;3.00;;
8978;SDS011;4524;51.364;5.448;2023-03-14T06:01:28;6.70;;;3.13;;
8978;SDS011;4524;51.364;5.448;2023-03-14T06:04:14;4.40;;;2.60;;
8978;SDS011;4524;51.364;5.448;2023-03-14T06:06:46;5.30;;;2.80;;
8978;SDS011;4524;51.364;5.448;2023-03-14T06:09:16;5.30;;;2.87;;
8978;SDS011;4524;51.364;5.448;2023-03-14T06:11:46;6.13;;;2.73;;
8978;SDS011;4524;51.364;5.448;2023-03-14T06:14:14;5.30;;;3.20;;
8978;SDS011;4524;51.364;5.448;2023-03-14T06:16:45;3.43;;;2.47;;
8978;SDS011;4524;51.364;5.448;2023-03-14T06:19:16;3.60;;;2.30;;
8978;SDS011;4524;51.364;5.448;2023-03-14T06:21:44;4.77;;;2.30;;
8978;SDS011;4524;51.364;5.448;2023-03-14T06:24:12;5.77;;;2.40;;
8978;SDS011;4524;51.364;5.448;2023-03-14T06:26:46;3.80;;;2.53;;
8978;SDS011;4524;51.364;5.448;2023-03-14T06:29:14;5.60;;;2.70;;
8978;SDS011;4524;51.364;5.448;2023-03-14T06:31:42;4.83;;;2.60;;
8978;SDS011;4524;51.364;5.448;2023-03-14T06:34:14;3.83;;;2.03;;
8978;SDS011;4524;51.364;5.448;2023-03-14T06:36:42;4.37;;;2.47;;
8978;SDS011;4524;51.364;5.448;2023-03-14T06:39:10;5.30;;;2.37;;
8978;SDS011;4524;51.364;5.448;2023-03-14T06:41:58;6.43;;;2.30;;
8978;SDS011;4524;51.364;5.448;2023-03-14T06:44:26;4.23;;;2.10;;
8978;SDS011;4524;51.364;5.448;2023-03-14T06:46:54;3.53;;;1.97;;
8978;SDS011;4524;51.364;5.448;2023-03-14T06:49:22;3.63;;;2.47;;
8978;SDS011;4524;51.364;5.448;2023-03-14T06:51:53;2.47;;;2.20;;
8978;SDS011;4524;51.364;5.448;2023-03-14T06:54:22;4.17;;;2.40;;
8978;SDS011;4524;51.364;5.448;2023-03-14T06:56:50;4.03;;;2.43;;
8978;SDS011;4524;51.364;5.448;2023-03-14T06:59:20;4.90;;;2.60;;
8978;SDS011;4524;51.364;5.448;2023-03-14T07:01:48;3.40;;;2.20;;
8978;SDS011;4524;51.364;5.448;2023-03-14T07:04:17;3.17;;;2.40;;
8978;SDS011;4524;51.364;5.448;2023-03-14T07:06:47;5.77;;;2.30;;
8978;SDS011;4524;51.364;5.448;2023-03-14T07:09:15;4.30;;;2.20;;
8978;SDS011;4524;51.364;5.448;2023-03-14T07:11:50;3.53;;;2.60;;
8978;SDS011;4524;51.364;5.448;2023-03-14T07:14:20;3.50;;;2.50;;
8978;SDS011;4524;51.364;5.448;2023-03-14T07:16:48;3.27;;;2.20;;
8978;SDS011;4524;51.364;5.448;2023-03-14T07:19:16;4.97;;;2.33;;
8978;SDS011;4524;51.364;5.448;2023-03-14T07:21:44;3.90;;;2.37;;
8978;SDS011;4524;51.364;5.448;2023-03-14T07:24:15;3.20;;;2.47;;
8978;SDS011;4524;51.364;5.448;2023-03-14T07:26:43;3.60;;;2.13;;
8978;SDS011;4524;51.364;5.448;2023-03-14T07:29:11;3.63;;;2.70;;
8978;SDS011;4524;51.364;5.448;2023-03-14T07:31:41;4.87;;;2.70;;
8978;SDS011;4524;51.364;5.448;2023-03-14T07:34:09;5.33;;;2.57;;
8978;SDS011;4524;51.364;5.448;2023-03-14T07:36:41;6.57;;;2.70;;
8978;SDS011;4524;51.364;5.448;2023-03-14T07:39:09;6.50;;;3.40;;
8978;SDS011;4524;51.364;5.448;2023-03-14T07:42:12;4.33;;;2.67;;
8978;SDS011;4524;51.364;5.448;2023-03-14T07:44:57;1.70;;;1.17;;
8978;SDS011;4524;51.364;5.448;2023-03-14T07:47:26;1.87;;;1.30;;
8978;SDS011;4524;51.364;5.448;2023-03-14T07:50:13;1.40;;;1.30;;
8978;SDS011;4524;51.364;5.448;2023-03-14T07:52:40;1.70;;;1.50;;
8978;SDS011;4524;51.364;5.448;2023-03-14T07:55:08;1.50;;;1.40;;
8978;SDS011;4524;51.364;5.448;2023-03-14T07:57:39;1.60;;;1.50;;
8978;SDS011;4524;51.364;5.448;2023-03-14T08:00:08;3.10;;;1.50;;
8978;SDS011;4524;51.364;5.448;2023-03-14T08:02:41;2.13;;;1.97;;
8978;SDS011;4524;51.364;5.448;2023-03-14T08:05:09;2.30;;;2.10;;
8978;SDS011;4524;51.364;5.448;2023-03-14T08:07:37;3.30;;;2.20;;
8978;SDS011;4524;51.364;5.448;2023-03-14T08:10:06;2.50;;;2.30;;
8978;SDS011;4524;51.364;5.448;2023-03-14T08:12:35;3.63;;;2.67;;
8978;SDS011;4524;51.364;5.448;2023-03-14T08:15:03;4.20;;;3.00;;
8978;SDS011;4524;51.364;5.448;2023-03-14T08:17:32;2.80;;;2.60;;
8978;SDS011;4524;51.364;5.448;2023-03-14T08:20:01;3.00;;;2.80;;
8978;SDS011;4524;51.364;5.448;2023-03-14T08:22:32;3.10;;;2.50;;
8978;SDS011;4524;51.364;5.448;2023-03-14T08:25:00;2.50;;;2.30;;
8978;SDS011;4524;51.364;5.448;2023-03-14T08:27:28;2.50;;;2.30;;
8978;SDS011;4524;51.364;5.448;2023-03-14T08:29:56;3.53;;;2.50;;
8978;SDS011;4524;51.364;5.448;2023-03-14T08:32:25;2.47;;;2.27;;
8978;SDS011;4524;51.364;5.448;2023-03-14T08:34:53;2.60;;;2.07;;
8978;SDS011;4524;51.364;5.448;2023-03-14T08:37:22;4.10;;;2.20;;
8978;SDS011;4524;51.364;5.448;2023-03-14T08:39:52;2.47;;;1.83;;
8978;SDS011;4524;51.364;5.448;2023-03-14T08:42:21;2.13;;;1.60;;
8978;SDS011;4524;51.364;5.448;2023-03-14T08:44:50;2.43;;;1.50;;
8978;SDS011;4524;51.364;5.448;2023-03-14T08:47:18;2.90;;;1.53;;
8978;SDS011;4524;51.364;5.448;2023-03-14T08:49:46;2.53;;;1.17;;
8978;SDS011;4524;51.364;5.448;2023-03-14T08:52:14;3.43;;;1.40;;
8978;SDS011;4524;51.364;5.448;2023-03-14T08:54:46;1.53;;;1.00;;
8978;SDS011;4524;51.364;5.448;2023-03-14T08:57:14;2.50;;;1.00;;
8978;SDS011;4524;51.364;5.448;2023-03-14T08:59:42;1.63;;;1.00;;
8978;SDS011;4524;51.364;5.448;2023-03-14T09:02:10;1.43;;;0.97;;
8978;SDS011;4524;51.364;5.448;2023-03-14T09:04:39;3.00;;;1.10;;
8978;SDS011;4524;51.364;5.448;2023-03-14T09:07:07;2.70;;;1.40;;
8978;SDS011;4524;51.364;5.448;2023-03-14T09:09:35;2.50;;;1.30;;
8978;SDS011;4524;51.364;5.448;2023-03-14T09:12:05;1.73;;;1.20;;
8978;SDS011;4524;51.364;5.448;2023-03-14T09:14:33;2.07;;;1.17;;
8978;SDS011;4524;51.364;5.448;2023-03-14T09:17:02;1.37;;;1.17;;
8978;SDS011;4524;51.364;5.448;2023-03-14T09:19:30;3.63;;;1.53;;
8978;SDS011;4524;51.364;5.448;2023-03-14T09:21:58;4.17;;;1.50;;
8978;SDS011;4524;51.364;5.448;2023-03-14T09:24:26;3.70;;;1.70;;
8978;SDS011;4524;51.364;5.448;2023-03-14T09:26:54;4.03;;;1.60;;
8978;SDS011;4524;51.364;5.448;2023-03-14T09:29:24;3.57;;;1.70;;
8978;SDS011;4524;51.364;5.448;2023-03-14T09:31:52;3.70;;;2.00;;
8978;SDS011;4524;51.364;5.448;2023-03-14T09:34:23;4.30;;;2.10;;
8978;SDS011;4524;51.364;5.448;2023-03-14T09:36:51;3.20;;;2.27;;
8978;SDS011;4524;51.364;5.448;2023-03-14T09:39:19;5.00;;;2.27;;
8978;SDS011;4524;51.364;5.448;2023-03-14T09:41:47;3.77;;;2.27;;
8978;SDS011;4524;51.364;5.448;2023-03-14T09:44:18;5.27;;;2.40;;
8978;SDS011;4524;51.364;5.448;2023-03-14T09:46:52;2.87;;;1.77;;
8978;SDS011;4524;51.364;5.448;2023-03-14T09:49:24;2.80;;;2.13;;
8978;SDS011;4524;51.364;5.448;2023-03-14T09:51:55;2.87;;;2.33;;
8978;SDS011;4524;51.364;5.448;2023-03-14T09:54:33;4.83;;;2.47;;
8978;SDS011;4524;51.364;5.448;2023-03-14T09:57:04;4.70;;;2.30;;
8978;SDS011;4524;51.364;5.448;2023-03-14T09:59:33;2.93;;;1.83;;
8978;SDS011;4524;51.364;5.448;2023-03-14T10:02:13;3.40;;;1.50;;
8978;SDS011;4524;51.364;5.448;2023-03-14T10:04:44;2.33;;;1.10;;
8978;SDS011;4524;51.364;5.448;2023-03-14T10:07:13;1.20;;;1.00;;
8978;SDS011;4524;51.364;5.448;2023-03-14T10:09:43;2.53;;;0.80;;
8978;SDS011;4524;51.364;5.448;2023-03-14T10:12:12;2.03;;;0.90;;
8978;SDS011;4524;51.364;5.448;2023-03-14T10:14:45;1.47;;;1.00;;
8978;SDS011;4524;51.364;5.448;2023-03-14T10:17:17;1.77;;;0.70;;
8978;SDS011;4524;51.364;5.448;2023-03-14T10:19:52;2.67;;;0.70;;
8978;SDS011;4524;51.364;5.448;2023-03-14T10:22:23;3.80;;;1.07;;
8978;SDS011;4524;51.364;5.448;2023-03-14T10:24:54;4.27;;;0.93;;
8978;SDS011;4524;51.364;5.448;2023-03-14T10:27:27;4.27;;;0.90;;
8978;SDS011;4524;51.364;5.448;2023-03-14T10:29:57;3.43;;;1.00;;
8978;SDS011;4524;51.364;5.448;2023-03-14T10:32:31;2.40;;;0.80;;
8978;SDS011;4524;51.364;5.448;2023-03-14T10:35:08;4.10;;;1.03;;
8978;SDS011;4524;51.364;5.448;2023-03-14T10:37:50;2.67;;;1.10;;
8978;SDS011;4524;51.364;5.448;2023-03-14T10:40:20;3.03;;;1.13;;
8978;SDS011;4524;51.364;5.448;2023-03-14T10:42:54;2.17;;;1.13;;
8978;SDS011;4524;51.364;5.448;2023-03-14T10:45:25;5.27;;;1.43;;
8978;SDS011;4524;51.364;5.448;2023-03-14T10:48:13;3.10;;;1.20;;
8978;SDS011;4524;51.364;5.448;2023-03-14T10:50:49;2.40;;;1.00;;
8978;SDS011;4524;51.364;5.448;2023-03-14T10:53:23;2.53;;;1.33;;
8978;SDS011;4524;51.364;5.448;2023-03-14T10:55:54;6.40;;;1.50;;
8978;SDS011;4524;51.364;5.448;2023-03-14T10:58:25;5.53;;;1.70;;
8978;SDS011;4524;51.364;5.448;2023-03-14T11:01:00;12.70;;;2.10;;
8978;SDS011;4524;51.364;5.448;2023-03-14T11:03:38;3.57;;;1.40;;
8978;SDS011;4524;51.364;5.448;2023-03-14T11:06:11;5.63;;;1.67;;
8978;SDS011;4524;51.364;5.448;2023-03-14T11:08:46;4.47;;;1.60;;
8978;SDS011;4524;51.364;5.448;2023-03-14T11:11:22;5.73;;;1.80;;
8978;SDS011;4524;51.364;5.448;2023-03-14T11:13:56;5.27;;;1.50;;
8978;SDS011;4524;51.364;5.448;2023-03-14T11:16:34;15.47;;;1.83;;
8978;SDS011;4524;51.364;5.448;2023-03-14T11:19:23;6.47;;;1.77;;
8978;SDS011;4524;51.364;5.448;2023-03-14T11:22:10;6.77;;;1.90;;
8978;SDS011;4524;51.364;5.448;2023-03-14T11:24:49;5.57;;;1.60;;
8978;SDS011;4524;51.364;5.448;2023-03-14T11:27:30;4.37;;;2.20;;
8978;SDS011;4524;51.364;5.448;2023-03-14T11:30:13;5.90;;;1.87;;
8978;SDS011;4524;51.364;5.448;2023-03-14T11:32:46;7.37;;;1.67;;
8978;SDS011;4524;51.364;5.448;2023-03-14T11:35:24;5.33;;;1.80;;
8978;SDS011;4524;51.364;5.448;2023-03-14T11:38:00;7.23;;;1.70;;
8978;SDS011;4524;51.364;5.448;2023-03-14T11:40:38;7.83;;;2.23;;
8978;SDS011;4524;51.364;5.448;2023-03-14T11:43:09;6.97;;;1.63;;
8978;SDS011;4524;51.364;5.448;2023-03-14T11:45:42;3.53;;;1.70;;
8978;SDS011;4524;51.364;5.448;2023-03-14T11:48:16;6.73;;;1.73;;
8978;SDS011;4524;51.364;5.448;2023-03-14T11:50:51;9.70;;;1.90;;
8978;SDS011;4524;51.364;5.448;2023-03-14T11:53:22;9.10;;;2.10;;
8978;SDS011;4524;51.364;5.448;2023-03-14T11:56:01;5.63;;;1.70;;
8978;SDS011;4524;51.364;5.448;2023-03-14T11:58:31;8.33;;;1.70;;
8978;SDS011;4524;51.364;5.448;2023-03-14T12:01:02;6.93;;;2.00;;
8978;SDS011;4524;51.364;5.448;2023-03-14T12:03:38;10.63;;;2.60;;
8978;SDS011;4524;51.364;5.448;2023-03-14T12:06:15;4.10;;;1.60;;
8978;SDS011;4524;51.364;5.448;2023-03-14T12:08:48;7.67;;;1.87;;
8978;SDS011;4524;51.364;5.448;2023-03-14T12:11:19;5.07;;;1.73;;
8978;SDS011;4524;51.364;5.448;2023-03-14T12:13:51;4.60;;;1.60;;
8978;SDS011;4524;51.364;5.448;2023-03-14T12:16:26;8.80;;;1.83;;
8978;SDS011;4524;51.364;5.448;2023-03-14T12:22:00;8.27;;;1.90;;
8978;SDS011;4524;51.364;5.448;2023-03-14T12:24:35;6.17;;;1.53;;
8978;SDS011;4524;51.364;5.448;2023-03-14T12:27:05;9.70;;;1.97;;
8978;SDS011;4524;51.364;5.448;2023-03-14T12:29:59;9.63;;;2.67;;
8978;SDS011;4524;51.364;5.448;2023-03-14T12:32:30;8.10;;;1.70;;
8978;SDS011;4524;51.364;5.448;2023-03-14T12:35:00;12.27;;;2.90;;
8978;SDS011;4524;51.364;5.448;2023-03-14T12:37:36;12.00;;;2.50;;
8978;SDS011;4524;51.364;5.448;2023-03-14T12:40:15;11.57;;;2.70;;
8978;SDS011;4524;51.364;5.448;2023-03-14T12:42:54;8.77;;;2.67;;
8978;SDS011;4524;51.364;5.448;2023-03-14T12:45:27;13.00;;;3.10;;
8978;SDS011;4524;51.364;5.448;2023-03-14T12:48:00;17.07;;;3.17;;
8978;SDS011;4524;51.364;5.448;2023-03-14T12:50:38;10.23;;;2.60;;
8978;SDS011;4524;51.364;5.448;2023-03-14T12:56:44;12.40;;;2.73;;
8978;SDS011;4524;51.364;5.448;2023-03-14T12:59:26;13.40;;;2.73;;
8978;SDS011;4524;51.364;5.448;2023-03-14T13:02:09;11.20;;;2.70;;
8978;SDS011;4524;51.364;5.448;2023-03-14T13:04:50;17.93;;;3.53;;
8978;SDS011;4524;51.364;5.448;2023-03-14T13:07:29;11.13;;;2.77;;
8978;SDS011;4524;51.364;5.448;2023-03-14T13:10:04;13.17;;;2.63;;
8978;SDS011;4524;51.364;5.448;2023-03-14T13:12:48;10.70;;;2.53;;
8978;SDS011;4524;51.364;5.448;2023-03-14T13:15:20;13.07;;;3.20;;
8978;SDS011;4524;51.364;5.448;2023-03-14T13:17:51;14.37;;;3.17;;
8978;SDS011;4524;51.364;5.448;2023-03-14T13:20:26;14.17;;;2.70;;
8978;SDS011;4524;51.364;5.448;2023-03-14T13:22:58;13.43;;;3.50;;
8978;SDS011;4524;51.364;5.448;2023-03-14T13:25:30;12.80;;;2.43;;
8978;SDS011;4524;51.364;5.448;2023-03-14T13:28:00;14.30;;;2.60;;
8978;SDS011;4524;51.364;5.448;2023-03-14T13:30:35;10.20;;;2.50;;
8978;SDS011;4524;51.364;5.448;2023-03-14T13:33:11;7.17;;;2.07;;
8978;SDS011;4524;51.364;5.448;2023-03-14T13:35:41;8.23;;;2.10;;
8978;SDS011;4524;51.364;5.448;2023-03-14T13:38:15;6.73;;;1.73;;
8978;SDS011;4524;51.364;5.448;2023-03-14T13:40:47;7.10;;;1.67;;
8978;SDS011;4524;51.364;5.448;2023-03-14T13:43:17;6.33;;;1.63;;
8978;SDS011;4524;51.364;5.448;2023-03-14T13:45:51;8.27;;;1.80;;
8978;SDS011;4524;51.364;5.448;2023-03-14T13:48:21;7.03;;;2.10;;
8978;SDS011;4524;51.364;5.448;2023-03-14T13:50:53;7.50;;;1.90;;
8978;SDS011;4524;51.364;5.448;2023-03-14T13:53:23;5.83;;;1.80;;
8978;SDS011;4524;51.364;5.448;2023-03-14T13:55:53;5.87;;;1.50;;
8978;SDS011;4524;51.364;5.448;2023-03-14T13:58:25;5.23;;;1.57;;
8978;SDS011;4524;51.364;5.448;2023-03-14T14:01:05;5.20;;;1.80;;
8978;SDS011;4524;51.364;5.448;2023-03-14T14:03:39;3.47;;;1.43;;
8978;SDS011;4524;51.364;5.448;2023-03-14T14:06:11;6.97;;;1.70;;
8978;SDS011;4524;51.364;5.448;2023-03-14T14:08:49;5.63;;;1.73;;
8978;SDS011;4524;51.364;5.448;2023-03-14T14:11:21;8.17;;;1.83;;
8978;SDS011;4524;51.364;5.448;2023-03-14T14:14:10;8.30;;;1.80;;
8978;SDS011;4524;51.364;5.448;2023-03-14T14:16:43;4.70;;;1.57;;
8978;SDS011;4524;51.364;5.448;2023-03-14T14:19:13;4.30;;;1.40;;
8978;SDS011;4524;51.364;5.448;2023-03-14T14:21:42;5.77;;;1.50;;
8978;SDS011;4524;51.364;5.448;2023-03-14T14:24:10;7.80;;;2.03;;
8978;SDS011;4524;51.364;5.448;2023-03-14T14:26:42;5.13;;;2.10;;
8978;SDS011;4524;51.364;5.448;2023-03-14T14:29:20;11.07;;;1.83;;
8978;SDS011;4524;51.364;5.448;2023-03-14T14:32:00;5.37;;;1.67;;
8978;SDS011;4524;51.364;5.448;2023-03-14T14:34:28;6.47;;;2.23;;
8978;SDS011;4524;51.364;5.448;2023-03-14T14:37:05;6.57;;;1.97;;
8978;SDS011;4524;51.364;5.448;2023-03-14T14:39:41;5.63;;;1.40;;
8978;SDS011;4524;51.364;5.448;2023-03-14T14:42:13;5.27;;;1.50;;
8978;SDS011;4524;51.364;5.448;2023-03-14T14:44:43;6.70;;;1.90;;
8978;SDS011;4524;51.364;5.448;2023-03-14T14:47:12;6.17;;;1.73;;
8978;SDS011;4524;51.364;5.448;2023-03-14T14:49:41;8.47;;;2.30;;
8978;SDS011;4524;51.364;5.448;2023-03-14T14:52:10;6.67;;;2.07;;
8978;SDS011;4524;51.364;5.448;2023-03-14T14:54:42;7.73;;;2.20;;
8978;SDS011;4524;51.364;5.448;2023-03-14T14:57:17;4.60;;;1.60;;
8978;SDS011;4524;51.364;5.448;2023-03-14T14:59:47;6.10;;;1.80;;
8978;SDS011;4524;51.364;5.448;2023-03-14T15:02:27;4.90;;;1.43;;
8978;SDS011;4524;51.364;5.448;2023-03-14T15:04:58;7.30;;;1.80;;
8978;SDS011;4524;51.364;5.448;2023-03-14T15:07:26;5.60;;;1.70;;
8978;SDS011;4524;51.364;5.448;2023-03-14T15:09:54;4.60;;;1.80;;
8978;SDS011;4524;51.364;5.448;2023-03-14T15:12:24;7.50;;;1.83;;
8978;SDS011;4524;51.364;5.448;2023-03-14T15:14:52;8.10;;;2.90;;
8978;SDS011;4524;51.364;5.448;2023-03-14T15:17:23;4.97;;;1.53;;
8978;SDS011;4524;51.364;5.448;2023-03-14T15:19:51;5.47;;;1.60;;
8978;SDS011;4524;51.364;5.448;2023-03-14T15:22:19;6.33;;;1.87;;
8978;SDS011;4524;51.364;5.448;2023-03-14T15:24:47;6.03;;;1.77;;
8978;SDS011;4524;51.364;5.448;2023-03-14T15:27:15;5.37;;;1.83;;
8978;SDS011;4524;51.364;5.448;2023-03-14T15:29:46;8.97;;;1.60;;
8978;SDS011;4524;51.364;5.448;2023-03-14T15:32:15;2.90;;;1.37;;
8978;SDS011;4524;51.364;5.448;2023-03-14T15:34:44;4.20;;;1.33;;
8978;SDS011;4524;51.364;5.448;2023-03-14T15:37:12;6.60;;;1.70;;
8978;SDS011;4524;51.364;5.448;2023-03-14T15:39:41;4.17;;;1.40;;
8978;SDS011;4524;51.364;5.448;2023-03-14T15:42:10;6.83;;;1.60;;
8978;SDS011;4524;51.364;5.448;2023-03-14T15:44:38;7.93;;;1.93;;
8978;SDS011;4524;51.364;5.448;2023-03-14T15:47:09;6.27;;;1.50;;
8978;SDS011;4524;51.364;5.448;2023-03-14T15:49:37;6.63;;;1.90;;
8978;SDS011;4524;51.364;5.448;2023-03-14T15:52:06;6.80;;;1.80;;
8978;SDS011;4524;51.364;5.448;2023-03-14T15:54:34;5.60;;;1.60;;